createdAt,value
2018-05-29T00:01:41.984Z,15.10
2018-05-29T00:04:11.015Z,15.00
2018-05-29T00:06:39.272Z,14.96
2018-05-29T00:09:08.302Z,15.09
2018-05-29T00:11:36.546Z,15.12
2018-05-29T00:14:05.578Z,15.04
2018-05-29T00:16:33.831Z,14.80
2018-05-29T00:19:02.101Z,14.80
2018-05-29T00:21:31.122Z,14.61
2018-05-29T00:23:59.403Z,14.49
2018-05-29T00:26:28.768Z,14.35
2018-05-29T00:28:57.802Z,14.35
2018-05-29T00:31:26.060Z,14.50
2018-05-29T00:33:55.232Z,14.28
2018-05-29T00:36:24.255Z,14.17
2018-05-29T00:38:53.287Z,14.03
2018-05-29T00:41:21.551Z,13.94
2018-05-29T00:43:49.815Z,13.92
2018-05-29T00:46:18.836Z,13.71
2018-05-29T00:48:48.778Z,13.59
2018-05-29T00:51:17.035Z,13.54
2018-05-29T00:53:45.303Z,13.62
2018-05-29T00:56:14.330Z,13.45
2018-05-29T00:58:42.596Z,13.31
2018-05-29T01:01:10.842Z,13.26
2018-05-29T01:03:39.883Z,13.21
2018-05-29T01:06:08.140Z,13.20
2018-05-29T01:08:36.415Z,13.17
2018-05-29T01:11:05.441Z,13.14
2018-05-29T01:13:33.714Z,13.12
2018-05-29T01:16:01.967Z,13.13
2018-05-29T01:18:30.995Z,13.16
2018-05-29T01:21:00.734Z,13.44
2018-05-29T01:23:28.991Z,13.15
2018-05-29T01:25:57.246Z,13.06
2018-05-29T01:28:26.275Z,13.08
2018-05-29T01:30:54.523Z,13.01
2018-05-29T01:33:23.570Z,12.97
2018-05-29T01:35:51.827Z,13.04
2018-05-29T01:38:20.075Z,12.98
2018-05-29T01:40:49.100Z,13.13
2018-05-29T01:43:17.355Z,13.23
2018-05-29T01:45:46.382Z,13.02
2018-05-29T01:48:14.633Z,13.02
2018-05-29T01:50:43.663Z,12.90
2018-05-29T01:53:11.932Z,12.77
2018-05-29T01:55:40.200Z,12.71
2018-05-29T01:58:09.226Z,12.65
2018-05-29T02:00:37.480Z,12.58
2018-05-29T02:03:06.504Z,12.49
2018-05-29T02:05:34.771Z,12.42
2018-05-29T02:08:03.022Z,12.42
2018-05-29T02:10:32.055Z,12.58
2018-05-29T02:13:00.303Z,12.71
2018-05-29T02:15:29.334Z,12.71
2018-05-29T02:17:57.598Z,12.39
2018-05-29T02:20:26.631Z,12.39
2018-05-29T02:22:55.308Z,12.38
2018-05-29T02:25:24.515Z,12.38
2018-05-29T02:27:52.771Z,12.31
2018-05-29T02:30:21.052Z,12.28
2018-05-29T02:32:49.321Z,12.22
2018-05-29T02:35:18.352Z,12.17
2018-05-29T02:37:46.604Z,12.14
2018-05-29T02:40:15.643Z,12.14
2018-05-29T02:42:43.888Z,12.16
2018-05-29T02:45:12.155Z,12.17
2018-05-29T02:47:41.187Z,12.26
2018-05-29T02:50:09.444Z,12.20
2018-05-29T02:52:38.548Z,12.38
2018-05-29T02:55:07.033Z,12.26
2018-05-29T02:57:35.715Z,12.22
2018-05-29T03:00:04.743Z,12.20
2018-05-29T03:02:33.019Z,12.07
2018-05-29T03:05:01.293Z,12.06
2018-05-29T03:07:29.559Z,12.01
2018-05-29T03:09:57.822Z,12.27
2018-05-29T03:12:26.848Z,12.17
2018-05-29T03:14:55.116Z,12.00
2018-05-29T03:17:23.371Z,11.95
2018-05-29T03:19:52.424Z,11.88
2018-05-29T03:22:21.306Z,11.88
2018-05-29T03:24:49.610Z,12.11
2018-05-29T03:27:18.591Z,12.16
2018-05-29T03:29:47.179Z,12.00
2018-05-29T03:32:15.447Z,11.89
2018-05-29T03:34:43.695Z,11.93
2018-05-29T03:37:12.723Z,11.92
2018-05-29T03:39:40.975Z,12.00
2018-05-29T03:42:10.003Z,12.01
2018-05-29T03:44:38.267Z,12.03
2018-05-29T03:47:07.301Z,12.12
2018-05-29T03:49:35.556Z,12.26
2018-05-29T03:52:03.824Z,12.41
2018-05-29T03:54:32.847Z,12.48
2018-05-29T03:57:01.112Z,12.60
2018-05-29T03:59:29.367Z,12.73
2018-05-29T04:01:58.732Z,12.83
2018-05-29T04:04:26.979Z,12.94
2018-05-29T04:06:55.254Z,13.25
2018-05-29T04:09:25.948Z,13.19
2018-05-29T04:11:54.175Z,13.16
2018-05-29T04:14:22.443Z,13.39
2018-05-29T04:16:51.492Z,13.66
2018-05-29T04:19:19.741Z,13.65
2018-05-29T04:21:48.017Z,13.79
2018-05-29T04:24:16.266Z,13.75
2018-05-29T04:26:45.329Z,13.89
2018-05-29T04:29:13.596Z,14.03
2018-05-29T04:31:41.870Z,14.20
2018-05-29T04:34:10.660Z,14.64
2018-05-29T04:36:38.954Z,14.88
2018-05-29T04:39:07.240Z,14.89
2018-05-29T04:41:35.516Z,15.20
2018-05-29T04:44:03.763Z,15.37
2018-05-29T04:46:32.791Z,15.57
2018-05-29T04:49:01.073Z,15.76
2018-05-29T04:51:29.678Z,15.90
2018-05-29T04:53:57.927Z,16.67
2018-05-29T04:56:26.194Z,17.93
2018-05-29T04:58:54.450Z,18.48
2018-05-29T05:01:23.489Z,18.20
2018-05-29T05:03:51.741Z,18.48
2018-05-29T05:06:20.854Z,17.44
2018-05-29T05:08:49.132Z,16.95
2018-05-29T05:11:18.171Z,16.68
2018-05-29T05:13:46.420Z,16.62
2018-05-29T05:16:14.702Z,16.77
2018-05-29T05:18:42.962Z,16.93
2018-05-29T05:21:11.992Z,16.95
2018-05-29T05:23:40.317Z,17.85
2018-05-29T05:26:08.535Z,19.22
2018-05-29T05:28:36.806Z,21.60
2018-05-29T05:31:05.834Z,23.24
2018-05-29T05:33:34.099Z,24.21
2018-05-29T05:36:02.907Z,25.52
2018-05-29T05:38:31.179Z,25.03
2018-05-29T05:40:59.449Z,25.41
2018-05-29T05:43:27.715Z,26.55
2018-05-29T05:45:56.747Z,27.75
2018-05-29T05:48:25.020Z,29.01
2018-05-29T05:50:53.280Z,29.83
2018-05-29T05:53:22.393Z,27.60
2018-05-29T05:55:50.655Z,26.31
2018-05-29T05:58:20.935Z,26.76
2018-05-29T06:00:49.187Z,29.03
2018-05-29T06:03:17.451Z,29.08
2018-05-29T06:05:45.716Z,28.31
2018-05-29T06:08:14.731Z,25.26
2018-05-29T06:10:42.998Z,24.52
2018-05-29T06:13:12.025Z,26.15
2018-05-29T06:15:40.288Z,27.08
2018-05-29T06:18:08.565Z,29.23
2018-05-29T06:20:36.822Z,29.92
2018-05-29T06:23:05.858Z,29.34
2018-05-29T06:25:34.111Z,28.05
2018-05-29T06:28:03.184Z,27.30
2018-05-29T06:30:31.395Z,24.75
2018-05-29T06:33:00.441Z,24.76
2018-05-29T06:35:28.850Z,24.27
2018-05-29T06:37:58.623Z,24.90
2018-05-29T06:40:26.871Z,26.22
2018-05-29T06:42:55.903Z,28.18
2018-05-29T06:45:24.168Z,28.72
2018-05-29T06:47:52.436Z,28.99
2018-05-29T06:50:21.458Z,28.26
2018-05-29T06:52:49.729Z,27.25
2018-05-29T06:55:17.982Z,27.91
2018-05-29T06:57:47.025Z,27.57
2018-05-29T07:00:15.276Z,27.53
2018-05-29T07:02:45.927Z,26.33
2018-05-29T07:05:14.179Z,25.67
2018-05-29T07:07:43.995Z,26.49
2018-05-29T07:10:13.026Z,27.27
2018-05-29T07:12:41.292Z,30.35
2018-05-29T07:15:09.563Z,32.29
2018-05-29T07:17:37.842Z,33.03
2018-05-29T07:20:06.881Z,33.67
2018-05-29T07:22:35.134Z,34.71
2018-05-29T07:25:04.853Z,36.09
2018-05-29T07:27:33.094Z,34.62
2018-05-29T07:30:02.128Z,36.84
2018-05-29T07:32:30.384Z,36.03
2018-05-29T07:34:59.414Z,36.72
2018-05-29T07:37:27.670Z,34.80
2018-05-29T07:39:55.948Z,32.91
2018-05-29T07:42:25.074Z,31.96
2018-05-29T07:44:53.331Z,28.72
2018-05-29T07:47:21.599Z,29.94
2018-05-29T07:49:50.634Z,29.74
2018-05-29T07:52:18.895Z,29.10
2018-05-29T07:54:47.281Z,29.55
2018-05-29T07:57:16.807Z,29.12
2018-05-29T07:59:45.077Z,27.75
2018-05-29T08:02:13.348Z,29.59
2018-05-29T08:04:41.612Z,33.57
2018-05-29T08:07:10.642Z,36.03
2018-05-29T08:09:38.902Z,33.82
2018-05-29T08:12:07.923Z,32.59
2018-05-29T08:14:36.186Z,32.44
2018-05-29T08:17:05.284Z,31.74
2018-05-29T08:19:33.562Z,31.30
2018-05-29T08:22:01.824Z,30.47
2018-05-29T08:24:30.851Z,29.18
2018-05-29T08:26:59.127Z,28.62
2018-05-29T08:29:28.757Z,28.38
2018-05-29T08:31:57.012Z,27.81
2018-05-29T08:34:26.046Z,27.55
2018-05-29T08:36:54.291Z,27.31
2018-05-29T08:39:22.662Z,27.61
2018-05-29T08:41:51.671Z,27.21
2018-05-29T08:44:19.942Z,27.13
2018-05-29T08:46:48.971Z,27.08
2018-05-29T08:49:17.242Z,26.76
2018-05-29T08:51:45.512Z,26.32
2018-05-29T08:54:13.771Z,26.66
2018-05-29T08:56:42.817Z,26.79
2018-05-29T08:59:11.072Z,27.45
2018-05-29T09:01:41.520Z,27.31
2018-05-29T09:04:09.783Z,28.94
2018-05-29T09:06:38.806Z,29.87
2018-05-29T09:09:07.069Z,31.93
2018-05-29T09:11:35.339Z,33.10
2018-05-29T09:14:03.606Z,35.35
2018-05-29T09:16:32.624Z,34.32
2018-05-29T09:19:00.891Z,31.75
2018-05-29T09:21:30.004Z,32.18
2018-05-29T09:23:58.279Z,33.18
2018-05-29T09:26:26.554Z,33.45
2018-05-29T09:28:54.839Z,32.50
2018-05-29T09:31:23.106Z,32.19
2018-05-29T09:33:51.623Z,31.66
2018-05-29T09:36:19.886Z,32.55
2018-05-29T09:38:48.151Z,31.65
2018-05-29T09:41:17.280Z,31.12
2018-05-29T09:43:45.538Z,31.95
2018-05-29T09:46:14.571Z,32.14
2018-05-29T09:48:42.824Z,32.71
2018-05-29T09:51:11.853Z,30.24
2018-05-29T09:53:40.117Z,28.96
2018-05-29T09:56:08.383Z,28.48
2018-05-29T09:58:36.653Z,27.92
2018-05-29T10:01:05.707Z,27.83
2018-05-29T10:03:33.947Z,27.79
2018-05-29T10:06:04.067Z,27.54
2018-05-29T10:08:33.083Z,27.28
2018-05-29T10:11:01.358Z,27.04
2018-05-29T10:13:30.012Z,27.50
2018-05-29T10:15:59.040Z,27.88
2018-05-29T10:18:27.302Z,28.96
2018-05-29T10:20:56.410Z,29.85
2018-05-29T10:23:25.465Z,29.58
2018-05-29T10:25:53.808Z,29.72
2018-05-29T10:28:22.068Z,28.87
2018-05-29T10:30:50.360Z,30.49
2018-05-29T10:33:19.352Z,31.14
2018-05-29T10:35:47.609Z,30.53
2018-05-29T10:38:16.551Z,30.02
2018-05-29T10:40:44.802Z,30.67
2018-05-29T10:43:13.843Z,30.83
2018-05-29T10:45:42.110Z,30.25
2018-05-29T10:48:10.379Z,31.01
2018-05-29T10:50:38.637Z,29.95
2018-05-29T10:53:07.755Z,30.02
2018-05-29T10:55:36.031Z,30.56
2018-05-29T10:58:05.053Z,31.00
2018-05-29T11:00:33.299Z,30.60
2018-05-29T11:03:02.334Z,32.09
2018-05-29T11:05:30.607Z,32.98
2018-05-29T11:07:58.872Z,33.35
2018-05-29T11:10:28.338Z,32.48
2018-05-29T11:12:57.612Z,32.52
2018-05-29T11:15:25.863Z,33.93
2018-05-29T11:17:54.124Z,33.38
2018-05-29T11:20:23.155Z,33.63
2018-05-29T11:22:51.435Z,31.68
2018-05-29T11:25:19.689Z,31.30
2018-05-29T11:27:48.735Z,29.01
2018-05-29T11:30:17.070Z,29.95
2018-05-29T11:32:45.336Z,31.11
2018-05-29T11:35:14.367Z,32.82
2018-05-29T11:37:42.634Z,33.02
2018-05-29T11:40:10.911Z,33.06
2018-05-29T11:42:41.368Z,31.87
2018-05-29T11:45:09.632Z,30.79
2018-05-29T11:47:37.900Z,31.05
2018-05-29T11:50:06.924Z,31.39
2018-05-29T11:52:35.182Z,31.61
2018-05-29T11:55:03.430Z,32.44
2018-05-29T11:57:32.480Z,31.12
2018-05-29T12:00:00.733Z,30.58
2018-05-29T12:02:29.759Z,31.71
2018-05-29T12:04:58.033Z,32.66
2018-05-29T12:07:26.286Z,32.02
2018-05-29T12:09:55.319Z,33.05
2018-05-29T12:12:27.013Z,33.95
2018-05-29T12:14:55.357Z,34.59
2018-05-29T12:17:23.624Z,32.85
2018-05-29T12:19:51.901Z,32.47
2018-05-29T12:22:20.669Z,32.57
2018-05-29T12:24:48.880Z,31.45
2018-05-29T12:27:19.143Z,32.32
2018-05-29T12:29:47.415Z,31.22
2018-05-29T12:32:15.674Z,30.09
2018-05-29T12:34:43.940Z,31.10
2018-05-29T12:37:12.207Z,30.74
2018-05-29T12:39:41.239Z,31.31
2018-05-29T12:42:09.501Z,31.63
2018-05-29T12:44:37.764Z,32.37
2018-05-29T12:47:06.795Z,31.70
2018-05-29T12:49:35.071Z,31.96
2018-05-29T12:52:03.339Z,31.42
2018-05-29T12:54:31.603Z,31.77
2018-05-29T12:57:00.624Z,31.41
2018-05-29T12:59:28.880Z,31.54
2018-05-29T13:01:57.904Z,31.03
2018-05-29T13:04:26.180Z,30.90
2018-05-29T13:06:54.457Z,30.77
2018-05-29T13:09:24.570Z,30.72
2018-05-29T13:11:52.831Z,30.23
2018-05-29T13:14:21.866Z,30.09
2018-05-29T13:16:50.121Z,30.55
2018-05-29T13:19:19.152Z,30.63
2018-05-29T13:21:47.407Z,30.57
2018-05-29T13:24:15.696Z,30.41
2018-05-29T13:26:43.947Z,30.31
2018-05-29T13:29:12.979Z,29.98
2018-05-29T13:31:41.235Z,29.03
2018-05-29T13:34:10.272Z,29.11
2018-05-29T13:36:38.527Z,30.24
2018-05-29T13:39:06.847Z,30.38
2018-05-29T13:41:35.627Z,30.73
2018-05-29T13:44:03.892Z,31.07
2018-05-29T13:46:32.141Z,30.38
2018-05-29T13:49:01.173Z,30.11
2018-05-29T13:51:29.422Z,29.96
2018-05-29T13:53:58.458Z,30.62
2018-05-29T13:56:26.733Z,31.02
2018-05-29T13:58:55.738Z,31.55
2018-05-29T14:01:24.011Z,31.67
2018-05-29T14:03:52.271Z,31.42
2018-05-29T14:06:20.530Z,31.30
2018-05-29T14:08:49.578Z,31.03
2018-05-29T14:11:17.844Z,31.10
2018-05-29T14:13:46.115Z,30.31
2018-05-29T14:16:15.148Z,30.36
2018-05-29T14:18:43.415Z,30.13
2018-05-29T14:21:11.675Z,29.16
2018-05-29T14:23:39.947Z,29.35
2018-05-29T14:26:08.985Z,29.68
2018-05-29T14:28:37.235Z,30.06
2018-05-29T14:31:05.544Z,30.03
2018-05-29T14:33:33.790Z,30.30
2018-05-29T14:36:02.851Z,30.52
2018-05-29T14:38:31.169Z,30.30
2018-05-29T14:40:59.363Z,29.36
2018-05-29T14:43:27.632Z,28.86
2018-05-29T14:45:55.905Z,29.34
2018-05-29T14:48:24.924Z,28.52
2018-05-29T14:50:53.218Z,28.43
2018-05-29T14:53:21.501Z,28.12
2018-05-29T14:55:50.922Z,28.25
2018-05-29T14:58:19.277Z,27.86
2018-05-29T15:00:47.665Z,28.03
2018-05-29T15:03:15.979Z,28.33
2018-05-29T15:05:44.433Z,28.96
2018-05-29T15:08:12.763Z,29.61
2018-05-29T15:10:42.603Z,29.91
2018-05-29T15:13:11.660Z,29.60
2018-05-29T15:15:40.747Z,29.12
2018-05-29T15:18:09.046Z,28.90
2018-05-29T15:20:38.128Z,28.73
2018-05-29T15:23:06.405Z,28.39
2018-05-29T15:25:34.725Z,27.89
2018-05-29T15:28:03.043Z,28.32
2018-05-29T15:30:31.453Z,28.92
2018-05-29T15:33:00.554Z,29.39
2018-05-29T15:35:28.814Z,29.22
2018-05-29T15:37:57.096Z,29.36
2018-05-29T15:40:25.376Z,29.69
2018-05-29T15:42:53.654Z,29.29
2018-05-29T15:45:21.950Z,28.42
2018-05-29T15:47:50.221Z,28.13
2018-05-29T15:50:18.529Z,28.67
2018-05-29T15:52:46.819Z,28.73
2018-05-29T15:55:15.137Z,29.00
2018-05-29T15:57:44.173Z,28.54
2018-05-29T16:00:12.605Z,28.99
2018-05-29T16:02:41.727Z,28.88
2018-05-29T16:05:10.006Z,29.26
2018-05-29T16:07:38.295Z,29.28
2018-05-29T16:10:06.612Z,29.01
2018-05-29T16:12:34.904Z,29.61
2018-05-29T16:15:03.179Z,29.26
2018-05-29T16:17:31.487Z,29.86
2018-05-29T16:20:00.788Z,29.23
2018-05-29T16:22:29.837Z,28.55
2018-05-29T16:24:58.115Z,28.44
2018-05-29T16:27:26.399Z,27.71
2018-05-29T16:29:54.925Z,27.07
2018-05-29T16:32:23.219Z,27.07
2018-05-29T16:34:52.268Z,26.65
2018-05-29T16:37:20.563Z,26.72
2018-05-29T16:39:48.864Z,26.26
2018-05-29T16:42:17.143Z,26.09
2018-05-29T16:44:46.930Z,26.15
2018-05-29T16:47:15.223Z,25.91
2018-05-29T16:49:43.538Z,25.82
2018-05-29T16:52:11.894Z,25.76
2018-05-29T16:54:40.209Z,25.83
2018-05-29T16:57:09.337Z,25.83
2018-05-29T16:59:37.700Z,25.94
2018-05-29T17:02:08.051Z,25.96
2018-05-29T17:04:36.352Z,25.94
2018-05-29T17:07:04.694Z,26.00
2018-05-29T17:09:33.738Z,26.02
2018-05-29T17:12:02.543Z,26.01
2018-05-29T17:14:33.886Z,26.14
2018-05-29T17:17:02.205Z,26.05
2018-05-29T17:19:31.272Z,25.85
2018-05-29T17:21:59.592Z,25.77
2018-05-29T17:24:28.843Z,25.74
2018-05-29T17:26:57.172Z,25.64
2018-05-29T17:29:25.559Z,25.60
2018-05-29T17:31:54.699Z,25.49
2018-05-29T17:34:23.008Z,25.39
2018-05-29T17:36:51.313Z,25.18
2018-05-29T17:39:20.371Z,25.14
2018-05-29T17:41:48.698Z,25.18
2018-05-29T17:44:17.766Z,24.96
2018-05-29T17:46:46.105Z,24.86
2018-05-29T17:49:14.565Z,24.67
2018-05-29T17:51:43.804Z,24.58
2018-05-29T17:54:12.094Z,24.52
2018-05-29T17:56:40.441Z,24.27
2018-05-29T17:59:08.856Z,24.24
2018-05-29T18:01:38.069Z,24.14
2018-05-29T18:04:07.207Z,24.14
2018-05-29T18:06:35.702Z,24.24
2018-05-29T18:09:04.128Z,24.13
2018-05-29T18:11:32.632Z,24.08
2018-05-29T18:14:01.038Z,23.86
2018-05-29T18:16:29.610Z,23.73
2018-05-29T18:18:57.868Z,23.60
2018-05-29T18:21:26.204Z,23.60
2018-05-29T18:23:55.417Z,23.54
2018-05-29T18:26:23.954Z,23.49
2018-05-29T18:28:52.308Z,23.43
2018-05-29T18:31:20.621Z,23.41
2018-05-29T18:33:49.212Z,23.37
2018-05-29T18:36:17.571Z,23.29
2018-05-29T18:38:45.940Z,23.11
2018-05-29T18:41:15.032Z,23.06
2018-05-29T18:43:43.358Z,23.04
2018-05-29T18:46:11.669Z,22.92
2018-05-29T18:48:39.975Z,22.78
2018-05-29T18:51:08.366Z,22.56
2018-05-29T18:53:37.489Z,22.45
2018-05-29T18:56:05.751Z,22.33
2018-05-29T18:58:34.063Z,22.21
2018-05-29T19:01:03.135Z,22.11
2018-05-29T19:03:31.493Z,22.50
2018-05-29T19:06:00.529Z,22.65
2018-05-29T19:08:28.819Z,22.70
2018-05-29T19:10:57.102Z,22.46
2018-05-29T19:13:25.429Z,22.20
2018-05-29T19:15:53.705Z,22.12
2018-05-29T19:18:22.850Z,22.23
2018-05-29T19:20:51.180Z,22.39
2018-05-29T19:23:20.232Z,22.44
2018-05-29T19:25:48.520Z,22.48
2018-05-29T19:28:18.343Z,22.48
2018-05-29T19:30:46.639Z,22.43
2018-05-29T19:33:15.778Z,22.34
2018-05-29T19:35:44.039Z,22.27
2018-05-29T19:38:13.066Z,22.10
2018-05-29T19:40:41.339Z,22.05
2018-05-29T19:43:09.604Z,22.03
2018-05-29T19:45:37.854Z,21.37
2018-05-29T19:48:06.892Z,20.67
2018-05-29T19:50:35.165Z,20.22
2018-05-29T19:53:03.433Z,20.12
2018-05-29T19:55:32.456Z,20.09
2018-05-29T19:58:00.728Z,19.87
2018-05-29T20:00:28.999Z,19.78
2018-05-29T20:02:57.279Z,19.82
2018-05-29T20:05:26.317Z,19.65
2018-05-29T20:07:54.658Z,19.70
2018-05-29T20:10:22.915Z,19.72
2018-05-29T20:12:51.956Z,19.72
2018-05-29T20:15:20.223Z,19.81
2018-05-29T20:17:48.487Z,19.64
2018-05-29T20:20:17.511Z,19.54
2018-05-29T20:22:45.795Z,19.35
2018-05-29T20:25:14.051Z,19.03
2018-05-29T20:27:43.066Z,18.97
2018-05-29T20:30:11.335Z,19.05
2018-05-29T20:32:39.597Z,18.97
2018-05-29T20:35:08.621Z,18.93
2018-05-29T20:37:36.874Z,18.80
2018-05-29T20:40:05.906Z,18.72
2018-05-29T20:42:34.175Z,18.72
2018-05-29T20:45:02.435Z,18.58
2018-05-29T20:47:31.503Z,18.39
2018-05-29T20:50:00.261Z,18.29
2018-05-29T20:52:28.524Z,18.09
2018-05-29T20:54:58.047Z,18.03
2018-05-29T20:57:26.304Z,18.23
2018-05-29T20:59:55.339Z,18.19
2018-05-29T21:02:23.600Z,18.33
2018-05-29T21:04:51.876Z,17.88
2018-05-29T21:07:20.130Z,17.61
2018-05-29T21:09:49.204Z,17.71
2018-05-29T21:12:17.472Z,18.04
2018-05-29T21:14:45.815Z,17.75
2018-05-29T21:17:14.084Z,17.91
2018-05-29T21:19:43.112Z,17.84
2018-05-29T21:22:11.393Z,18.00
2018-05-29T21:24:40.403Z,18.05
2018-05-29T21:27:08.671Z,17.97
2018-05-29T21:29:36.943Z,17.70
2018-05-29T21:32:05.192Z,17.64
2018-05-29T21:34:34.310Z,17.57
2018-05-29T21:37:03.127Z,17.43
2018-05-29T21:39:31.444Z,17.35
2018-05-29T21:41:59.662Z,17.36
2018-05-29T21:44:28.350Z,17.12
2018-05-29T21:46:56.613Z,17.07
2018-05-29T21:49:25.648Z,16.93
2018-05-29T21:51:53.888Z,17.11
2018-05-29T21:54:22.920Z,17.04
2018-05-29T21:56:51.165Z,16.99
2018-05-29T21:59:20.214Z,17.16
2018-05-29T22:01:48.478Z,17.17
2018-05-29T22:04:16.747Z,16.93
2018-05-29T22:06:45.870Z,16.78
2018-05-29T22:09:14.852Z,16.87
2018-05-29T22:11:43.120Z,17.14
2018-05-29T22:14:12.133Z,17.00
2018-05-29T22:16:40.403Z,17.23
2018-05-29T22:19:08.679Z,17.33
2018-05-29T22:21:37.709Z,17.33
2018-05-29T22:24:05.972Z,17.24
2018-05-29T22:26:34.223Z,17.31
2018-05-29T22:29:03.263Z,17.09
2018-05-29T22:31:31.514Z,17.27
2018-05-29T22:34:00.556Z,17.25
2018-05-29T22:36:28.899Z,17.17
2018-05-29T22:38:57.926Z,17.16
2018-05-29T22:41:26.995Z,17.09
2018-05-29T22:43:55.276Z,16.87
2018-05-29T22:46:24.379Z,16.94
2018-05-29T22:48:52.655Z,17.06
2018-05-29T22:51:21.694Z,16.89
2018-05-29T22:53:49.983Z,16.98
2018-05-29T22:56:18.216Z,17.03
2018-05-29T22:58:47.234Z,17.08
2018-05-29T23:01:15.512Z,16.93
2018-05-29T23:03:43.794Z,16.93
2018-05-29T23:06:12.047Z,16.93
2018-05-29T23:08:41.208Z,16.93
2018-05-29T23:11:10.971Z,17.02
2018-05-29T23:13:39.243Z,17.09
2018-05-29T23:16:08.264Z,17.07
2018-05-29T23:18:36.531Z,17.11
2018-05-29T23:21:04.804Z,17.15
2018-05-29T23:23:33.822Z,17.08
2018-05-29T23:26:02.084Z,17.08
2018-05-29T23:28:31.108Z,17.16
2018-05-29T23:30:59.368Z,17.03
2018-05-29T23:33:27.623Z,16.98
2018-05-29T23:35:56.667Z,16.96
2018-05-29T23:38:24.923Z,16.97
2018-05-29T23:40:54.308Z,17.25
2018-05-29T23:43:23.327Z,17.22
2018-05-29T23:45:51.599Z,17.03
2018-05-29T23:48:20.615Z,17.12
2018-05-29T23:50:48.892Z,16.99
2018-05-29T23:53:17.151Z,16.97
2018-05-29T23:55:46.179Z,16.84
2018-05-29T23:58:14.443Z,16.74
